sensor_id;sensor_type;location;lat;lon;timestamp;P1;durP1;ratioP1;P2;durP2;ratioP2
20449;SDS011;10384;51.940;8.432;2023-06-05T00:02:14;5.33;;;1.83;;
20449;SDS011;10384;51.940;8.432;2023-06-05T00:04:41;3.17;;;1.63;;
20449;SDS011;10384;51.940;8.432;2023-06-05T00:07:08;3.43;;;1.77;;
20449;SDS011;10384;51.940;8.432;2023-06-05T00:09:34;3.63;;;1.70;;
20449;SDS011;10384;51.940;8.432;2023-06-05T00:12:00;3.93;;;2.00;;
20449;SDS011;10384;51.940;8.432;2023-06-05T00:14:26;2.23;;;1.50;;
20449;SDS011;10384;51.940;8.432;2023-06-05T00:16:52;4.40;;;1.87;;
20449;SDS011;10384;51.940;8.432;2023-06-05T00:19:18;3.13;;;1.70;;
20449;SDS011;10384;51.940;8.432;2023-06-05T00:21:44;7.23;;;2.50;;
20449;SDS011;10384;51.940;8.432;2023-06-05T00:24:10;4.17;;;2.23;;
20449;SDS011;10384;51.940;8.432;2023-06-05T00:26:36;2.27;;;1.73;;
20449;SDS011;10384;51.940;8.432;2023-06-05T00:29:02;2.57;;;1.60;;
20449;SDS011;10384;51.940;8.432;2023-06-05T00:31:28;2.60;;;1.53;;
20449;SDS011;10384;51.940;8.432;2023-06-05T00:33:55;3.80;;;1.60;;
20449;SDS011;10384;51.940;8.432;2023-06-05T00:36:21;3.27;;;1.90;;
20449;SDS011;10384;51.940;8.432;2023-06-05T00:38:48;4.33;;;1.70;;
20449;SDS011;10384;51.940;8.432;2023-06-05T00:41:14;3.27;;;1.80;;
20449;SDS011;10384;51.940;8.432;2023-06-05T00:43:40;3.53;;;1.80;;
20449;SDS011;10384;51.940;8.432;2023-06-05T00:46:06;3.60;;;1.70;;
20449;SDS011;10384;51.940;8.432;2023-06-05T00:48:32;3.67;;;1.70;;
20449;SDS011;10384;51.940;8.432;2023-06-05T00:50:59;4.63;;;2.00;;
20449;SDS011;10384;51.940;8.432;2023-06-05T00:53:25;4.57;;;1.70;;
20449;SDS011;10384;51.940;8.432;2023-06-05T00:55:51;2.80;;;1.57;;
20449;SDS011;10384;51.940;8.432;2023-06-05T00:58:17;4.00;;;2.00;;
20449;SDS011;10384;51.940;8.432;2023-06-05T01:00:43;2.40;;;1.60;;
20449;SDS011;10384;51.940;8.432;2023-06-05T01:03:10;3.50;;;2.00;;
20449;SDS011;10384;51.940;8.432;2023-06-05T01:05:36;5.37;;;1.70;;
20449;SDS011;10384;51.940;8.432;2023-06-05T01:08:03;3.50;;;1.60;;
20449;SDS011;10384;51.940;8.432;2023-06-05T01:10:30;2.13;;;1.43;;
20449;SDS011;10384;51.940;8.432;2023-06-05T01:13:14;4.47;;;1.73;;
20449;SDS011;10384;51.940;8.432;2023-06-05T01:15:45;2.43;;;1.50;;
20449;SDS011;10384;51.940;8.432;2023-06-05T01:18:13;4.17;;;1.60;;
20449;SDS011;10384;51.940;8.432;2023-06-05T01:20:40;3.20;;;1.77;;
20449;SDS011;10384;51.940;8.432;2023-06-05T01:23:07;4.43;;;1.83;;
20449;SDS011;10384;51.940;8.432;2023-06-05T01:25:33;3.50;;;1.80;;
20449;SDS011;10384;51.940;8.432;2023-06-05T01:30:35;3.07;;;1.73;;
20449;SDS011;10384;51.940;8.432;2023-06-05T01:33:04;3.20;;;1.73;;
20449;SDS011;10384;51.940;8.432;2023-06-05T01:35:31;4.23;;;1.53;;
20449;SDS011;10384;51.940;8.432;2023-06-05T01:37:59;5.33;;;1.90;;
20449;SDS011;10384;51.940;8.432;2023-06-05T01:40:27;2.57;;;1.63;;
20449;SDS011;10384;51.940;8.432;2023-06-05T01:42:54;3.40;;;1.60;;
20449;SDS011;10384;51.940;8.432;2023-06-05T01:45:21;2.60;;;1.47;;
20449;SDS011;10384;51.940;8.432;2023-06-05T01:47:47;4.63;;;1.77;;
20449;SDS011;10384;51.940;8.432;2023-06-05T01:50:14;4.83;;;1.93;;
20449;SDS011;10384;51.940;8.432;2023-06-05T01:52:41;4.70;;;1.97;;
20449;SDS011;10384;51.940;8.432;2023-06-05T01:55:15;3.93;;;1.93;;
20449;SDS011;10384;51.940;8.432;2023-06-05T01:57:41;4.20;;;2.10;;
20449;SDS011;10384;51.940;8.432;2023-06-05T02:00:08;3.40;;;1.97;;
20449;SDS011;10384;51.940;8.432;2023-06-05T02:02:38;6.33;;;2.10;;
20449;SDS011;10384;51.940;8.432;2023-06-05T02:05:06;3.27;;;1.80;;
20449;SDS011;10384;51.940;8.432;2023-06-05T02:07:33;3.60;;;2.13;;
20449;SDS011;10384;51.940;8.432;2023-06-05T02:10:01;2.53;;;1.83;;
20449;SDS011;10384;51.940;8.432;2023-06-05T02:12:27;2.47;;;1.70;;
20449;SDS011;10384;51.940;8.432;2023-06-05T02:14:54;3.90;;;1.93;;
20449;SDS011;10384;51.940;8.432;2023-06-05T02:17:22;6.07;;;2.23;;
20449;SDS011;10384;51.940;8.432;2023-06-05T02:19:50;6.67;;;2.07;;
20449;SDS011;10384;51.940;8.432;2023-06-05T02:22:16;3.77;;;2.07;;
20449;SDS011;10384;51.940;8.432;2023-06-05T02:24:42;5.90;;;2.40;;
20449;SDS011;10384;51.940;8.432;2023-06-05T02:27:08;3.27;;;1.97;;
20449;SDS011;10384;51.940;8.432;2023-06-05T02:29:35;7.17;;;2.07;;
20449;SDS011;10384;51.940;8.432;2023-06-05T02:32:02;4.50;;;2.20;;
20449;SDS011;10384;51.940;8.432;2023-06-05T02:34:27;3.63;;;2.17;;
20449;SDS011;10384;51.940;8.432;2023-06-05T02:36:53;10.13;;;2.90;;
20449;SDS011;10384;51.940;8.432;2023-06-05T02:39:20;4.80;;;2.67;;
20449;SDS011;10384;51.940;8.432;2023-06-05T02:41:46;3.97;;;1.97;;
20449;SDS011;10384;51.940;8.432;2023-06-05T02:44:12;4.13;;;2.30;;
20449;SDS011;10384;51.940;8.432;2023-06-05T02:46:38;3.53;;;2.00;;
20449;SDS011;10384;51.940;8.432;2023-06-05T02:49:04;4.87;;;2.13;;
20449;SDS011;10384;51.940;8.432;2023-06-05T02:51:30;6.63;;;2.70;;
20449;SDS011;10384;51.940;8.432;2023-06-05T02:53:56;5.23;;;2.10;;
20449;SDS011;10384;51.940;8.432;2023-06-05T02:56:22;4.40;;;2.10;;
20449;SDS011;10384;51.940;8.432;2023-06-05T02:58:52;5.80;;;2.70;;
20449;SDS011;10384;51.940;8.432;2023-06-05T03:01:18;5.50;;;2.30;;
20449;SDS011;10384;51.940;8.432;2023-06-05T03:03:46;4.47;;;2.67;;
20449;SDS011;10384;51.940;8.432;2023-06-05T03:06:13;5.03;;;2.30;;
20449;SDS011;10384;51.940;8.432;2023-06-05T03:08:42;4.83;;;2.13;;
20449;SDS011;10384;51.940;8.432;2023-06-05T03:11:08;8.97;;;2.37;;
20449;SDS011;10384;51.940;8.432;2023-06-05T03:13:34;4.40;;;2.10;;
20449;SDS011;10384;51.940;8.432;2023-06-05T03:16:00;5.93;;;2.80;;
20449;SDS011;10384;51.940;8.432;2023-06-05T03:18:29;5.60;;;2.43;;
20449;SDS011;10384;51.940;8.432;2023-06-05T03:20:56;5.10;;;2.60;;
20449;SDS011;10384;51.940;8.432;2023-06-05T03:23:25;6.63;;;2.50;;
20449;SDS011;10384;51.940;8.432;2023-06-05T03:25:52;7.37;;;2.87;;
20449;SDS011;10384;51.940;8.432;2023-06-05T03:28:18;5.30;;;2.47;;
20449;SDS011;10384;51.940;8.432;2023-06-05T03:30:45;4.63;;;2.40;;
20449;SDS011;10384;51.940;8.432;2023-06-05T03:33:11;4.77;;;2.50;;
20449;SDS011;10384;51.940;8.432;2023-06-05T03:35:38;5.43;;;2.73;;
20449;SDS011;10384;51.940;8.432;2023-06-05T03:38:05;8.43;;;2.50;;
20449;SDS011;10384;51.940;8.432;2023-06-05T03:40:31;6.13;;;2.63;;
20449;SDS011;10384;51.940;8.432;2023-06-05T03:42:57;7.63;;;3.00;;
20449;SDS011;10384;51.940;8.432;2023-06-05T03:45:23;5.33;;;3.10;;
20449;SDS011;10384;51.940;8.432;2023-06-05T03:47:51;6.90;;;2.97;;
20449;SDS011;10384;51.940;8.432;2023-06-05T03:50:19;5.43;;;2.70;;
20449;SDS011;10384;51.940;8.432;2023-06-05T03:52:45;5.77;;;2.70;;
20449;SDS011;10384;51.940;8.432;2023-06-05T03:55:18;5.50;;;2.40;;
20449;SDS011;10384;51.940;8.432;2023-06-05T03:57:47;5.47;;;3.10;;
20449;SDS011;10384;51.940;8.432;2023-06-05T04:00:13;6.20;;;2.90;;
20449;SDS011;10384;51.940;8.432;2023-06-05T04:02:40;7.97;;;3.37;;
20449;SDS011;10384;51.940;8.432;2023-06-05T04:05:06;6.97;;;3.10;;
20449;SDS011;10384;51.940;8.432;2023-06-05T04:07:36;8.93;;;3.17;;
20449;SDS011;10384;51.940;8.432;2023-06-05T04:10:02;5.33;;;2.97;;
20449;SDS011;10384;51.940;8.432;2023-06-05T04:12:29;7.23;;;2.93;;
20449;SDS011;10384;51.940;8.432;2023-06-05T04:14:55;6.47;;;3.40;;
20449;SDS011;10384;51.940;8.432;2023-06-05T04:17:21;8.27;;;3.37;;
20449;SDS011;10384;51.940;8.432;2023-06-05T04:19:47;6.57;;;3.20;;
20449;SDS011;10384;51.940;8.432;2023-06-05T04:22:13;7.07;;;3.13;;
20449;SDS011;10384;51.940;8.432;2023-06-05T04:24:40;11.90;;;3.77;;
20449;SDS011;10384;51.940;8.432;2023-06-05T04:27:06;15.07;;;4.00;;
20449;SDS011;10384;51.940;8.432;2023-06-05T04:29:33;10.60;;;3.53;;
20449;SDS011;10384;51.940;8.432;2023-06-05T04:31:59;19.03;;;3.80;;
20449;SDS011;10384;51.940;8.432;2023-06-05T04:34:25;11.63;;;3.50;;
20449;SDS011;10384;51.940;8.432;2023-06-05T04:36:51;11.80;;;3.53;;
20449;SDS011;10384;51.940;8.432;2023-06-05T04:39:17;9.93;;;3.33;;
20449;SDS011;10384;51.940;8.432;2023-06-05T04:41:44;14.60;;;3.90;;
20449;SDS011;10384;51.940;8.432;2023-06-05T04:44:14;19.00;;;4.80;;
20449;SDS011;10384;51.940;8.432;2023-06-05T04:46:44;16.50;;;3.87;;
20449;SDS011;10384;51.940;8.432;2023-06-05T04:49:11;14.57;;;3.80;;
20449;SDS011;10384;51.940;8.432;2023-06-05T04:51:37;11.60;;;4.03;;
20449;SDS011;10384;51.940;8.432;2023-06-05T04:54:03;13.23;;;4.27;;
20449;SDS011;10384;51.940;8.432;2023-06-05T04:56:30;8.70;;;3.17;;
20449;SDS011;10384;51.940;8.432;2023-06-05T04:58:57;13.07;;;3.40;;
20449;SDS011;10384;51.940;8.432;2023-06-05T05:01:24;12.87;;;3.60;;
20449;SDS011;10384;51.940;8.432;2023-06-05T05:03:52;7.60;;;3.10;;
20449;SDS011;10384;51.940;8.432;2023-06-05T05:06:19;8.33;;;4.13;;
20449;SDS011;10384;51.940;8.432;2023-06-05T05:08:46;8.50;;;3.50;;
20449;SDS011;10384;51.940;8.432;2023-06-05T05:11:15;9.50;;;3.20;;
20449;SDS011;10384;51.940;8.432;2023-06-05T05:13:41;9.53;;;3.30;;
20449;SDS011;10384;51.940;8.432;2023-06-05T05:16:07;8.37;;;3.60;;
20449;SDS011;10384;51.940;8.432;2023-06-05T05:18:34;7.10;;;3.93;;
20449;SDS011;10384;51.940;8.432;2023-06-05T05:21:01;6.80;;;3.77;;
20449;SDS011;10384;51.940;8.432;2023-06-05T05:23:28;8.53;;;3.20;;
20449;SDS011;10384;51.940;8.432;2023-06-05T05:25:54;8.60;;;3.90;;
20449;SDS011;10384;51.940;8.432;2023-06-05T05:28:19;7.93;;;3.27;;
20449;SDS011;10384;51.940;8.432;2023-06-05T05:30:45;9.53;;;3.03;;
20449;SDS011;10384;51.940;8.432;2023-06-05T05:33:11;10.73;;;3.17;;
20449;SDS011;10384;51.940;8.432;2023-06-05T05:35:39;8.87;;;3.00;;
20449;SDS011;10384;51.940;8.432;2023-06-05T05:38:05;9.57;;;3.83;;
20449;SDS011;10384;51.940;8.432;2023-06-05T05:40:32;9.50;;;3.87;;
20449;SDS011;10384;51.940;8.432;2023-06-05T05:42:58;8.77;;;3.30;;
20449;SDS011;10384;51.940;8.432;2023-06-05T05:45:24;7.37;;;3.33;;
20449;SDS011;10384;51.940;8.432;2023-06-05T05:47:50;6.90;;;3.27;;
20449;SDS011;10384;51.940;8.432;2023-06-05T05:50:16;8.80;;;3.50;;
20449;SDS011;10384;51.940;8.432;2023-06-05T05:52:42;7.33;;;3.13;;
20449;SDS011;10384;51.940;8.432;2023-06-05T05:55:09;5.80;;;2.83;;
20449;SDS011;10384;51.940;8.432;2023-06-05T05:57:35;7.43;;;3.27;;
20449;SDS011;10384;51.940;8.432;2023-06-05T06:00:01;7.93;;;3.70;;
20449;SDS011;10384;51.940;8.432;2023-06-05T06:02:27;8.37;;;3.07;;
20449;SDS011;10384;51.940;8.432;2023-06-05T06:04:53;6.40;;;2.93;;
20449;SDS011;10384;51.940;8.432;2023-06-05T06:07:19;8.23;;;3.43;;
20449;SDS011;10384;51.940;8.432;2023-06-05T06:09:46;9.07;;;3.83;;
20449;SDS011;10384;51.940;8.432;2023-06-05T06:12:12;9.77;;;3.33;;
20449;SDS011;10384;51.940;8.432;2023-06-05T06:14:38;7.67;;;3.27;;
20449;SDS011;10384;51.940;8.432;2023-06-05T06:17:04;8.50;;;3.10;;
20449;SDS011;10384;51.940;8.432;2023-06-05T06:19:35;9.63;;;3.27;;
20449;SDS011;10384;51.940;8.432;2023-06-05T06:22:01;5.77;;;3.23;;
20449;SDS011;10384;51.940;8.432;2023-06-05T06:24:27;7.40;;;3.60;;
20449;SDS011;10384;51.940;8.432;2023-06-05T06:26:53;8.73;;;3.20;;
20449;SDS011;10384;51.940;8.432;2023-06-05T06:29:20;6.93;;;2.87;;
20449;SDS011;10384;51.940;8.432;2023-06-05T06:31:47;7.43;;;3.30;;
20449;SDS011;10384;51.940;8.432;2023-06-05T06:34:14;11.23;;;4.40;;
20449;SDS011;10384;51.940;8.432;2023-06-05T06:36:40;6.93;;;3.53;;
20449;SDS011;10384;51.940;8.432;2023-06-05T06:39:09;7.60;;;3.43;;
20449;SDS011;10384;51.940;8.432;2023-06-05T06:41:35;9.00;;;3.40;;
20449;SDS011;10384;51.940;8.432;2023-06-05T06:44:02;7.17;;;3.53;;
20449;SDS011;10384;51.940;8.432;2023-06-05T06:46:29;9.10;;;3.30;;
20449;SDS011;10384;51.940;8.432;2023-06-05T06:48:55;9.30;;;3.40;;
20449;SDS011;10384;51.940;8.432;2023-06-05T06:51:21;11.43;;;4.30;;
20449;SDS011;10384;51.940;8.432;2023-06-05T06:53:47;8.63;;;4.03;;
20449;SDS011;10384;51.940;8.432;2023-06-05T06:56:14;9.60;;;3.47;;
20449;SDS011;10384;51.940;8.432;2023-06-05T06:58:41;9.17;;;3.40;;
20449;SDS011;10384;51.940;8.432;2023-06-05T07:01:07;8.00;;;3.60;;
20449;SDS011;10384;51.940;8.432;2023-06-05T07:03:34;8.50;;;3.40;;
20449;SDS011;10384;51.940;8.432;2023-06-05T07:06:00;8.73;;;3.53;;
20449;SDS011;10384;51.940;8.432;2023-06-05T07:08:26;7.73;;;3.53;;
20449;SDS011;10384;51.940;8.432;2023-06-05T07:10:52;9.87;;;3.07;;
20449;SDS011;10384;51.940;8.432;2023-06-05T07:13:21;6.03;;;3.00;;
20449;SDS011;10384;51.940;8.432;2023-06-05T07:15:47;11.03;;;3.70;;
20449;SDS011;10384;51.940;8.432;2023-06-05T07:18:14;8.37;;;3.80;;
20449;SDS011;10384;51.940;8.432;2023-06-05T07:20:40;7.57;;;3.97;;
20449;SDS011;10384;51.940;8.432;2023-06-05T07:23:06;7.10;;;3.07;;
20449;SDS011;10384;51.940;8.432;2023-06-05T07:25:32;5.90;;;3.03;;
20449;SDS011;10384;51.940;8.432;2023-06-05T07:27:58;9.73;;;3.47;;
20449;SDS011;10384;51.940;8.432;2023-06-05T07:30:25;9.77;;;2.90;;
20449;SDS011;10384;51.940;8.432;2023-06-05T07:32:51;10.13;;;4.23;;
20449;SDS011;10384;51.940;8.432;2023-06-05T07:35:17;7.03;;;2.93;;
20449;SDS011;10384;51.940;8.432;2023-06-05T07:37:44;7.80;;;3.10;;
20449;SDS011;10384;51.940;8.432;2023-06-05T07:40:10;8.17;;;3.13;;
20449;SDS011;10384;51.940;8.432;2023-06-05T07:42:36;4.93;;;2.63;;
20449;SDS011;10384;51.940;8.432;2023-06-05T07:45:02;9.03;;;2.67;;
20449;SDS011;10384;51.940;8.432;2023-06-05T07:47:28;5.70;;;2.63;;
20449;SDS011;10384;51.940;8.432;2023-06-05T07:49:59;6.90;;;3.30;;
20449;SDS011;10384;51.940;8.432;2023-06-05T07:52:30;6.93;;;3.00;;
20449;SDS011;10384;51.940;8.432;2023-06-05T07:54:56;5.67;;;3.10;;
20449;SDS011;10384;51.940;8.432;2023-06-05T07:57:22;5.80;;;2.97;;
20449;SDS011;10384;51.940;8.432;2023-06-05T07:59:53;7.67;;;3.10;;
20449;SDS011;10384;51.940;8.432;2023-06-05T08:02:19;7.80;;;3.07;;
20449;SDS011;10384;51.940;8.432;2023-06-05T08:04:46;7.50;;;2.67;;
20449;SDS011;10384;51.940;8.432;2023-06-05T08:07:12;6.50;;;3.20;;
20449;SDS011;10384;51.940;8.432;2023-06-05T08:09:38;9.17;;;3.43;;
20449;SDS011;10384;51.940;8.432;2023-06-05T08:12:04;5.50;;;2.93;;
20449;SDS011;10384;51.940;8.432;2023-06-05T08:14:30;7.93;;;2.70;;
20449;SDS011;10384;51.940;8.432;2023-06-05T08:16:56;5.20;;;2.77;;
20449;SDS011;10384;51.940;8.432;2023-06-05T08:19:22;6.33;;;2.47;;
20449;SDS011;10384;51.940;8.432;2023-06-05T08:21:50;4.17;;;2.60;;
20449;SDS011;10384;51.940;8.432;2023-06-05T08:24:17;4.93;;;3.00;;
20449;SDS011;10384;51.940;8.432;2023-06-05T08:26:43;5.27;;;2.43;;
20449;SDS011;10384;51.940;8.432;2023-06-05T08:29:09;7.40;;;2.47;;
20449;SDS011;10384;51.940;8.432;2023-06-05T08:31:37;7.30;;;2.87;;
20449;SDS011;10384;51.940;8.432;2023-06-05T08:34:03;6.17;;;2.40;;
20449;SDS011;10384;51.940;8.432;2023-06-05T08:36:29;6.57;;;2.40;;
20449;SDS011;10384;51.940;8.432;2023-06-05T08:38:58;5.03;;;2.50;;
20449;SDS011;10384;51.940;8.432;2023-06-05T08:41:24;4.70;;;2.47;;
20449;SDS011;10384;51.940;8.432;2023-06-05T08:43:50;6.23;;;2.80;;
20449;SDS011;10384;51.940;8.432;2023-06-05T08:46:16;6.40;;;2.43;;
20449;SDS011;10384;51.940;8.432;2023-06-05T08:48:47;5.00;;;1.93;;
20449;SDS011;10384;51.940;8.432;2023-06-05T08:51:14;2.80;;;1.70;;
20449;SDS011;10384;51.940;8.432;2023-06-05T08:53:51;4.77;;;2.00;;
20449;SDS011;10384;51.940;8.432;2023-06-05T08:56:18;2.93;;;1.90;;
20449;SDS011;10384;51.940;8.432;2023-06-05T08:58:44;9.53;;;1.97;;
20449;SDS011;10384;51.940;8.432;2023-06-05T09:01:12;3.53;;;1.93;;
20449;SDS011;10384;51.940;8.432;2023-06-05T09:03:38;4.27;;;1.90;;
20449;SDS011;10384;51.940;8.432;2023-06-05T09:06:04;5.97;;;2.20;;
20449;SDS011;10384;51.940;8.432;2023-06-05T09:08:30;3.37;;;2.13;;
20449;SDS011;10384;51.940;8.432;2023-06-05T09:13:45;4.63;;;2.97;;
20449;SDS011;10384;51.940;8.432;2023-06-05T09:16:11;7.23;;;2.77;;
20449;SDS011;10384;51.940;8.432;2023-06-05T09:21:18;3.30;;;1.90;;
20449;SDS011;10384;51.940;8.432;2023-06-05T09:23:44;3.67;;;2.27;;
20449;SDS011;10384;51.940;8.432;2023-06-05T09:26:10;4.47;;;2.70;;
20449;SDS011;10384;51.940;8.432;2023-06-05T09:28:54;3.60;;;1.97;;
20449;SDS011;10384;51.940;8.432;2023-06-05T09:31:20;4.37;;;1.80;;
20449;SDS011;10384;51.940;8.432;2023-06-05T09:33:55;3.87;;;1.87;;
20449;SDS011;10384;51.940;8.432;2023-06-05T09:36:21;3.73;;;2.30;;
20449;SDS011;10384;51.940;8.432;2023-06-05T09:38:47;3.60;;;1.83;;
20449;SDS011;10384;51.940;8.432;2023-06-05T09:41:15;4.57;;;1.77;;
20449;SDS011;10384;51.940;8.432;2023-06-05T09:43:44;5.50;;;2.17;;
20449;SDS011;10384;51.940;8.432;2023-06-05T09:46:14;4.63;;;2.37;;
20449;SDS011;10384;51.940;8.432;2023-06-05T09:48:41;3.93;;;2.57;;
20449;SDS011;10384;51.940;8.432;2023-06-05T09:51:14;3.83;;;2.30;;
20449;SDS011;10384;51.940;8.432;2023-06-05T09:53:44;6.00;;;2.83;;
20449;SDS011;10384;51.940;8.432;2023-06-05T09:56:11;8.90;;;3.77;;
20449;SDS011;10384;51.940;8.432;2023-06-05T09:58:38;4.97;;;3.10;;
20449;SDS011;10384;51.940;8.432;2023-06-05T10:01:05;4.20;;;2.17;;
20449;SDS011;10384;51.940;8.432;2023-06-05T10:03:32;4.40;;;2.80;;
20449;SDS011;10384;51.940;8.432;2023-06-05T10:05:59;5.50;;;3.10;;
20449;SDS011;10384;51.940;8.432;2023-06-05T10:08:27;5.73;;;3.80;;
20449;SDS011;10384;51.940;8.432;2023-06-05T10:10:53;6.63;;;3.67;;
20449;SDS011;10384;51.940;8.432;2023-06-05T10:13:19;6.67;;;3.50;;
20449;SDS011;10384;51.940;8.432;2023-06-05T10:15:45;5.33;;;3.10;;
20449;SDS011;10384;51.940;8.432;2023-06-05T10:18:11;4.33;;;2.70;;
20449;SDS011;10384;51.940;8.432;2023-06-05T10:20:37;5.00;;;2.83;;
20449;SDS011;10384;51.940;8.432;2023-06-05T10:23:03;6.17;;;2.83;;
20449;SDS011;10384;51.940;8.432;2023-06-05T10:25:30;3.80;;;2.40;;
20449;SDS011;10384;51.940;8.432;2023-06-05T10:33:28;3.10;;;1.90;;
20449;SDS011;10384;51.940;8.432;2023-06-05T10:38:26;4.90;;;2.00;;
20449;SDS011;10384;51.940;8.432;2023-06-05T10:40:57;5.60;;;3.17;;
20449;SDS011;10384;51.940;8.432;2023-06-05T10:45:53;2.73;;;1.83;;
20449;SDS011;10384;51.940;8.432;2023-06-05T10:48:19;2.97;;;1.80;;
20449;SDS011;10384;51.940;8.432;2023-06-05T10:50:45;5.47;;;2.10;;
20449;SDS011;10384;51.940;8.432;2023-06-05T10:55:56;4.70;;;1.70;;
20449;SDS011;10384;51.940;8.432;2023-06-05T10:58:22;4.30;;;2.00;;
20449;SDS011;10384;51.940;8.432;2023-06-05T11:06:21;2.80;;;1.40;;
20449;SDS011;10384;51.940;8.432;2023-06-05T11:11:56;2.20;;;1.47;;
20449;SDS011;10384;51.940;8.432;2023-06-05T11:14:23;2.50;;;1.93;;
20449;SDS011;10384;51.940;8.432;2023-06-05T11:16:49;4.80;;;2.20;;
20449;SDS011;10384;51.940;8.432;2023-06-05T11:24:36;3.10;;;1.73;;
20449;SDS011;10384;51.940;8.432;2023-06-05T11:27:03;3.10;;;1.80;;
20449;SDS011;10384;51.940;8.432;2023-06-05T11:29:30;6.73;;;2.00;;
20449;SDS011;10384;51.940;8.432;2023-06-05T11:31:56;9.17;;;2.00;;
20449;SDS011;10384;51.940;8.432;2023-06-05T11:34:23;4.17;;;2.17;;
20449;SDS011;10384;51.940;8.432;2023-06-05T11:36:50;3.57;;;2.43;;
20449;SDS011;10384;51.940;8.432;2023-06-05T11:39:16;4.33;;;2.00;;
20449;SDS011;10384;51.940;8.432;2023-06-05T11:41:47;4.30;;;1.57;;
20449;SDS011;10384;51.940;8.432;2023-06-05T11:44:14;5.43;;;1.73;;
20449;SDS011;10384;51.940;8.432;2023-06-05T11:46:41;3.40;;;1.80;;
20449;SDS011;10384;51.940;8.432;2023-06-05T11:49:26;3.57;;;2.20;;
20449;SDS011;10384;51.940;8.432;2023-06-05T11:51:53;2.63;;;1.90;;
20449;SDS011;10384;51.940;8.432;2023-06-05T11:54:30;2.57;;;1.63;;
20449;SDS011;10384;51.940;8.432;2023-06-05T11:56:59;2.83;;;1.70;;
20449;SDS011;10384;51.940;8.432;2023-06-05T11:59:32;2.37;;;1.77;;
20449;SDS011;10384;51.940;8.432;2023-06-05T12:01:59;4.30;;;1.90;;
20449;SDS011;10384;51.940;8.432;2023-06-05T12:04:25;2.40;;;1.93;;
20449;SDS011;10384;51.940;8.432;2023-06-05T12:06:51;4.07;;;1.80;;
20449;SDS011;10384;51.940;8.432;2023-06-05T12:09:18;7.50;;;2.20;;
20449;SDS011;10384;51.940;8.432;2023-06-05T12:11:44;3.23;;;1.97;;
20449;SDS011;10384;51.940;8.432;2023-06-05T12:14:11;3.90;;;2.00;;
20449;SDS011;10384;51.940;8.432;2023-06-05T12:16:40;5.07;;;2.27;;
20449;SDS011;10384;51.940;8.432;2023-06-05T12:19:12;3.30;;;1.97;;
20449;SDS011;10384;51.940;8.432;2023-06-05T12:21:38;3.20;;;2.03;;
20449;SDS011;10384;51.940;8.432;2023-06-05T12:24:05;3.40;;;1.90;;
20449;SDS011;10384;51.940;8.432;2023-06-05T12:29:19;3.97;;;2.00;;
20449;SDS011;10384;51.940;8.432;2023-06-05T12:31:45;3.57;;;2.03;;
20449;SDS011;10384;51.940;8.432;2023-06-05T12:34:11;2.23;;;1.73;;
20449;SDS011;10384;51.940;8.432;2023-06-05T12:36:40;4.07;;;2.10;;
20449;SDS011;10384;51.940;8.432;2023-06-05T12:39:09;2.13;;;1.80;;
20449;SDS011;10384;51.940;8.432;2023-06-05T12:41:35;3.60;;;1.90;;
20449;SDS011;10384;51.940;8.432;2023-06-05T12:44:02;3.70;;;1.90;;
20449;SDS011;10384;51.940;8.432;2023-06-05T12:46:33;3.03;;;2.00;;
20449;SDS011;10384;51.940;8.432;2023-06-05T12:48:59;5.43;;;2.07;;
20449;SDS011;10384;51.940;8.432;2023-06-05T12:51:26;2.43;;;1.63;;
20449;SDS011;10384;51.940;8.432;2023-06-05T12:53:53;2.00;;;1.80;;
20449;SDS011;10384;51.940;8.432;2023-06-05T12:56:19;5.70;;;1.83;;
20449;SDS011;10384;51.940;8.432;2023-06-05T12:58:55;4.60;;;2.00;;
20449;SDS011;10384;51.940;8.432;2023-06-05T13:01:22;3.57;;;1.73;;
20449;SDS011;10384;51.940;8.432;2023-06-05T13:03:48;3.90;;;1.70;;
20449;SDS011;10384;51.940;8.432;2023-06-05T13:06:14;5.30;;;1.97;;
20449;SDS011;10384;51.940;8.432;2023-06-05T13:08:40;3.67;;;1.93;;
20449;SDS011;10384;51.940;8.432;2023-06-05T13:11:06;2.53;;;1.80;;
20449;SDS011;10384;51.940;8.432;2023-06-05T13:13:32;3.00;;;2.10;;
20449;SDS011;10384;51.940;8.432;2023-06-05T13:15:58;8.50;;;2.13;;
20449;SDS011;10384;51.940;8.432;2023-06-05T13:18:25;2.43;;;2.00;;
20449;SDS011;10384;51.940;8.432;2023-06-05T13:20:51;2.07;;;1.70;;
20449;SDS011;10384;51.940;8.432;2023-06-05T13:23:17;4.57;;;1.77;;
20449;SDS011;10384;51.940;8.432;2023-06-05T13:25:43;4.10;;;1.90;;
20449;SDS011;10384;51.940;8.432;2023-06-05T13:28:10;5.10;;;1.60;;
20449;SDS011;10384;51.940;8.432;2023-06-05T13:30:36;4.07;;;1.90;;
20449;SDS011;10384;51.940;8.432;2023-06-05T13:33:02;7.73;;;1.93;;
20449;SDS011;10384;51.940;8.432;2023-06-05T13:35:28;2.70;;;2.10;;
20449;SDS011;10384;51.940;8.432;2023-06-05T13:37:54;3.50;;;2.10;;
20449;SDS011;10384;51.940;8.432;2023-06-05T13:40:20;3.27;;;2.07;;
20449;SDS011;10384;51.940;8.432;2023-06-05T13:42:46;2.73;;;1.97;;
20449;SDS011;10384;51.940;8.432;2023-06-05T13:45:13;2.57;;;1.90;;
20449;SDS011;10384;51.940;8.432;2023-06-05T13:47:39;6.53;;;2.47;;
20449;SDS011;10384;51.940;8.432;2023-06-05T13:50:05;3.03;;;1.70;;
20449;SDS011;10384;51.940;8.432;2023-06-05T13:52:32;5.20;;;2.10;;
20449;SDS011;10384;51.940;8.432;2023-06-05T13:54:58;5.53;;;1.90;;
20449;SDS011;10384;51.940;8.432;2023-06-05T13:57:23;3.67;;;1.67;;
20449;SDS011;10384;51.940;8.432;2023-06-05T13:59:50;3.33;;;1.90;;
20449;SDS011;10384;51.940;8.432;2023-06-05T14:02:16;3.97;;;1.97;;
20449;SDS011;10384;51.940;8.432;2023-06-05T14:04:42;8.77;;;2.70;;
20449;SDS011;10384;51.940;8.432;2023-06-05T14:07:08;5.50;;;1.93;;
20449;SDS011;10384;51.940;8.432;2023-06-05T14:09:34;3.13;;;1.83;;
20449;SDS011;10384;51.940;8.432;2023-06-05T14:12:01;5.93;;;2.30;;
20449;SDS011;10384;51.940;8.432;2023-06-05T14:14:28;3.30;;;1.87;;
20449;SDS011;10384;51.940;8.432;2023-06-05T14:16:54;3.50;;;2.23;;
20449;SDS011;10384;51.940;8.432;2023-06-05T14:19:20;6.03;;;2.00;;
20449;SDS011;10384;51.940;8.432;2023-06-05T14:21:46;4.43;;;2.63;;
20449;SDS011;10384;51.940;8.432;2023-06-05T14:24:14;3.10;;;2.20;;
20449;SDS011;10384;51.940;8.432;2023-06-05T14:26:40;4.43;;;2.20;;
20449;SDS011;10384;51.940;8.432;2023-06-05T14:29:06;4.67;;;2.40;;
20449;SDS011;10384;51.940;8.432;2023-06-05T14:31:33;5.43;;;2.10;;
20449;SDS011;10384;51.940;8.432;2023-06-05T14:33:59;4.27;;;2.30;;
20449;SDS011;10384;51.940;8.432;2023-06-05T14:36:25;3.53;;;1.90;;
20449;SDS011;10384;51.940;8.432;2023-06-05T14:38:51;4.50;;;1.97;;
20449;SDS011;10384;51.940;8.432;2023-06-05T14:41:17;3.13;;;1.93;;
20449;SDS011;10384;51.940;8.432;2023-06-05T14:43:43;4.40;;;1.90;;
20449;SDS011;10384;51.940;8.432;2023-06-05T14:46:09;9.13;;;2.20;;
20449;SDS011;10384;51.940;8.432;2023-06-05T14:48:35;3.30;;;2.03;;
20449;SDS011;10384;51.940;8.432;2023-06-05T14:51:01;2.50;;;1.90;;
20449;SDS011;10384;51.940;8.432;2023-06-05T14:53:27;3.67;;;1.87;;
20449;SDS011;10384;51.940;8.432;2023-06-05T14:55:53;3.87;;;1.67;;
20449;SDS011;10384;51.940;8.432;2023-06-05T14:58:19;3.77;;;2.30;;
20449;SDS011;10384;51.940;8.432;2023-06-05T15:00:45;2.20;;;1.57;;
20449;SDS011;10384;51.940;8.432;2023-06-05T15:03:11;4.57;;;1.70;;
20449;SDS011;10384;51.940;8.432;2023-06-05T15:05:37;3.33;;;1.80;;
20449;SDS011;10384;51.940;8.432;2023-06-05T15:08:03;3.37;;;1.80;;
20449;SDS011;10384;51.940;8.432;2023-06-05T15:10:30;3.83;;;1.90;;
20449;SDS011;10384;51.940;8.432;2023-06-05T15:12:56;3.83;;;1.80;;
20449;SDS011;10384;51.940;8.432;2023-06-05T15:15:25;2.37;;;1.77;;
20449;SDS011;10384;51.940;8.432;2023-06-05T15:17:51;3.50;;;1.73;;
20449;SDS011;10384;51.940;8.432;2023-06-05T15:20:17;6.67;;;2.00;;
20449;SDS011;10384;51.940;8.432;2023-06-05T15:22:44;4.47;;;1.93;;
20449;SDS011;10384;51.940;8.432;2023-06-05T15:25:10;2.17;;;1.77;;